^^
Saratoga-Weather Station Historical Data
Daily Summary for November 22, 2021 Units:  Both    English   Metric
Daily Weekly Monthly Yearly Custom
  High: Low: Average:
Temperature: 43.7 °F /  6.5 °C 41.5 °F /  5.3 °C 42.6 °F /  5.9 °C
Dew Point: 41.7 °F /  5.4 °C 38.5 °F /  3.6 °C 40.1 °F /  4.5 °C
Humidity: 95% 84% 91%
Wind Speed: 6.9mph /  11.1km/h - 1.7mph /  2.8km/h
Wind Gust: 10mph /  16.1km/h - -
Wind- - SW
Pressure: 30.2 in /  1021.3 hPa 30 in /  1014.6 hPa -
Precipitation: 0 in /  0.0 mm    
Historical Graphs
 
 
Tabular Data for November 22, 2021
Time Temperature Dew Point Pressure Wind Wind Speed Wind Gust Humidity Rainfall Rate (Hourly) solar
00:03 43 °F /  6.1 °C 41.7 °F /  5.4 °C 30in /  1014.6hPa Calm     95% 0.02in /  0.5mm 0 W/m2
00:08 43 °F /  6.1 °C 41.7 °F /  5.4 °C 30in /  1014.6hPa Calm   2mph /  3.2km/h 95% 0.02in /  0.5mm 0 W/m2
00:13 43 °F /  6.1 °C 41.7 °F /  5.4 °C 30in /  1014.6hPa Calm     95% 0.02in /  0.5mm 0 W/m2
00:18 43 °F /  6.1 °C 41.7 °F /  5.4 °C 30in /  1014.6hPa Calm     95% 0.02in /  0.5mm 0 W/m2
00:23 43 °F /  6.1 °C 41.7 °F /  5.4 °C 30in /  1014.6hPa Calm     95% 0.01in /  0.2mm 0 W/m2
00:28 42.8 °F /  6 °C 41.5 °F /  5.3 °C 30in /  1014.6hPa WNW 0.9mph /  1.4km/h 2mph /  3.2km/h 95% 0.01in /  0.2mm 0 W/m2
00:33 42.8 °F /  6 °C 41.5 °F /  5.3 °C 30in /  1014.6hPa NNW 2mph /  3.2km/h 2mph /  3.2km/h 95% 0.01in /  0.2mm 0 W/m2
00:38 42.8 °F /  6 °C 41.5 °F /  5.3 °C 30in /  1014.6hPa West 4mph /  6.4km/h 4mph /  6.4km/h 95% 0.01in /  0.2mm 0 W/m2
00:43 42.8 °F /  6 °C 41.5 °F /  5.3 °C 30in /  1014.9hPa NW 0.9mph /  1.4km/h 2mph /  3.2km/h 95% 0in /  0.0mm 0 W/m2
00:48 42.8 °F /  6 °C 41.5 °F /  5.3 °C 30in /  1014.9hPa Calm   4mph /  6.4km/h 95% 0in /  0.0mm 0 W/m2
00:53 42.8 °F /  6 °C 41.5 °F /  5.3 °C 30in /  1014.9hPa NW 2mph /  3.2km/h 3mph /  4.8km/h 95% 0in /  0.0mm 0 W/m2
00:58 43 °F /  6.1 °C 41.7 °F /  5.4 °C 30in /  1014.9hPa WNW 2mph /  3.2km/h 4mph /  6.4km/h 95% 0in /  0.0mm 0 W/m2
01:04 43 °F /  6.1 °C 41.7 °F /  5.4 °C 30in /  1014.9hPa NW 2mph /  3.2km/h 2mph /  3.2km/h 95% 0in /  0.0mm 0 W/m2
01:09 43 °F /  6.1 °C 41.4 °F /  5.2 °C 30in /  1014.9hPa WNW 2.9mph /  4.7km/h 4mph /  6.4km/h 94% 0in /  0.0mm 0 W/m2
01:14 43.2 °F /  6.2 °C 41.5 °F /  5.3 °C 30in /  1014.9hPa NW 0.9mph /  1.4km/h 2mph /  3.2km/h 94% 0in /  0.0mm 0 W/m2
01:19 43.2 °F /  6.2 °C 41.5 °F /  5.3 °C 30in /  1014.9hPa NNW 0.9mph /  1.4km/h 5mph /  8km/h 94% 0in /  0.0mm 0 W/m2
01:24 43.2 °F /  6.2 °C 41.5 °F /  5.3 °C 30in /  1014.9hPa North 0.9mph /  1.4km/h 3mph /  4.8km/h 94% 0in /  0.0mm 0 W/m2
01:29 43.2 °F /  6.2 °C 41.5 °F /  5.3 °C 30in /  1014.9hPa WSW 0.9mph /  1.4km/h 1mph /  1.6km/h 94% 0in /  0.0mm 0 W/m2
01:34 43.2 °F /  6.2 °C 41.5 °F /  5.3 °C 30in /  1015.2hPa WNW 0.9mph /  1.4km/h 2mph /  3.2km/h 94% 0in /  0.0mm 0 W/m2
01:39 43.3 °F /  6.3 °C 41.7 °F /  5.4 °C 30in /  1014.9hPa NW 0.9mph /  1.4km/h 3mph /  4.8km/h 94% 0in /  0.0mm 0 W/m2
01:44 43.2 °F /  6.2 °C 41.5 °F /  5.3 °C 30in /  1014.9hPa NE 2mph /  3.2km/h 3mph /  4.8km/h 94% 0in /  0.0mm 0 W/m2
01:49 43.2 °F /  6.2 °C 41.4 °F /  5.2 °C 30in /  1015.2hPa WNW 0.9mph /  1.4km/h 3mph /  4.8km/h 93% 0in /  0.0mm 0 W/m2
01:54 43.2 °F /  6.2 °C 41.4 °F /  5.2 °C 30in /  1015.2hPa ENE 2.9mph /  4.7km/h 3mph /  4.8km/h 93% 0in /  0.0mm 0 W/m2
01:59 43.2 °F /  6.2 °C 41.5 °F /  5.3 °C 30in /  1015.2hPa North 2mph /  3.2km/h 3mph /  4.8km/h 94% 0in /  0.0mm 0 W/m2
02:04 43.2 °F /  6.2 °C 41.4 °F /  5.2 °C 30in /  1015.2hPa West 2mph /  3.2km/h 3mph /  4.8km/h 93% 0in /  0.0mm 0 W/m2
02:09 43.2 °F /  6.2 °C 41.4 °F /  5.2 °C 30in /  1015.2hPa NNW 0.9mph /  1.4km/h 3mph /  4.8km/h 93% 0in /  0.0mm 0 W/m2
02:14 43.2 °F /  6.2 °C 41.4 °F /  5.2 °C 30in /  1015.2hPa NNW 0.9mph /  1.4km/h 4mph /  6.4km/h 93% 0in /  0.0mm 0 W/m2
02:19 43.2 °F /  6.2 °C 41.4 °F /  5.2 °C 30in /  1015.2hPa Calm     93% 0in /  0.0mm 0 W/m2
02:24 43.2 °F /  6.2 °C 41.4 °F /  5.2 °C 30in /  1015.2hPa WNW 0.9mph /  1.4km/h 2mph /  3.2km/h 93% 0in /  0.0mm 0 W/m2
02:29 43.2 °F /  6.2 °C 41.4 °F /  5.2 °C 30in /  1015.6hPa West 2.9mph /  4.7km/h 4mph /  6.4km/h 93% 0in /  0.0mm 0 W/m2
02:34 43.2 °F /  6.2 °C 41.4 °F /  5.2 °C 30in /  1015.6hPa NW 2mph /  3.2km/h 5mph /  8km/h 93% 0in /  0.0mm 0 W/m2
02:39 43.2 °F /  6.2 °C 41.4 °F /  5.2 °C 30in /  1015.6hPa West 0.9mph /  1.4km/h 4mph /  6.4km/h 93% 0in /  0.0mm 0 W/m2
02:44 43.2 °F /  6.2 °C 41.4 °F /  5.2 °C 30in /  1015.6hPa NNE 0.9mph /  1.4km/h 4mph /  6.4km/h 93% 0in /  0.0mm 0 W/m2
02:49 43.2 °F /  6.2 °C 41.4 °F /  5.2 °C 30in /  1015.9hPa West 2mph /  3.2km/h 3mph /  4.8km/h 93% 0in /  0.0mm 0 W/m2
02:54 43.2 °F /  6.2 °C 41 °F /  5 °C 30in /  1015.9hPa WNW 2mph /  3.2km/h 4mph /  6.4km/h 92% 0in /  0.0mm 0 W/m2
02:59 43.2 °F /  6.2 °C 41 °F /  5 °C 30in /  1015.9hPa Calm   5mph /  8km/h 92% 0in /  0.0mm 0 W/m2
03:04 43.2 °F /  6.2 °C 41 °F /  5 °C 30in /  1015.9hPa West 2mph /  3.2km/h 4mph /  6.4km/h 92% 0in /  0.0mm 0 W/m2
03:09 43.3 °F /  6.3 °C 41.2 °F /  5.1 °C 30in /  1015.9hPa NNW 0.9mph /  1.4km/h 2mph /  3.2km/h 92% 0in /  0.0mm 0 W/m2
03:14 43.3 °F /  6.3 °C 41.2 °F /  5.1 °C 30in /  1015.9hPa North 0.9mph /  1.4km/h 7mph /  11.3km/h 92% 0in /  0.0mm 0 W/m2
03:19 43.3 °F /  6.3 °C 41.2 °F /  5.1 °C 30in /  1015.9hPa NW 0.9mph /  1.4km/h 6mph /  9.7km/h 92% 0in /  0.0mm 0 W/m2
03:24 43.3 °F /  6.3 °C 40.8 °F /  4.9 °C 30in /  1015.9hPa NNE 0.9mph /  1.4km/h 9mph /  14.5km/h 91% 0in /  0.0mm 0 W/m2
03:29 43.3 °F /  6.3 °C 40.8 °F /  4.9 °C 30in /  1016.3hPa NNW 2mph /  3.2km/h 6mph /  9.7km/h 91% 0in /  0.0mm 0 W/m2
03:34 43.3 °F /  6.3 °C 40.8 °F /  4.9 °C 30in /  1015.9hPa North 2.9mph /  4.7km/h 9mph /  14.5km/h 91% 0in /  0.0mm 0 W/m2
03:39 43.3 °F /  6.3 °C 40.8 °F /  4.9 °C 30in /  1016.3hPa Calm   4mph /  6.4km/h 91% 0in /  0.0mm 0 W/m2
03:44 43.2 °F /  6.2 °C 40.6 °F /  4.8 °C 30in /  1016.3hPa SW 0.9mph /  1.4km/h 6mph /  9.7km/h 91% 0in /  0.0mm 0 W/m2
03:49 43.2 °F /  6.2 °C 40.6 °F /  4.8 °C 30in /  1016.3hPa Calm   5mph /  8km/h 91% 0in /  0.0mm 0 W/m2
03:54 43.2 °F /  6.2 °C 40.6 °F /  4.8 °C 30in /  1016.3hPa WNW 2mph /  3.2km/h 4mph /  6.4km/h 91% 0in /  0.0mm 0 W/m2
03:59 43.2 °F /  6.2 °C 40.6 °F /  4.8 °C 30in /  1016.3hPa WNW 0.9mph /  1.4km/h 2mph /  3.2km/h 91% 0in /  0.0mm 0 W/m2
04:04 43.2 °F /  6.2 °C 40.6 °F /  4.8 °C 30in /  1016.3hPa NNE 2.9mph /  4.7km/h 6mph /  9.7km/h 91% 0in /  0.0mm 0 W/m2
04:09 43 °F /  6.1 °C 40.5 °F /  4.7 °C 30in /  1016.3hPa NNW 2.9mph /  4.7km/h 3mph /  4.8km/h 91% 0in /  0.0mm 0 W/m2
04:14 43 °F /  6.1 °C 40.5 °F /  4.7 °C 30in /  1016.3hPa North 0.9mph /  1.4km/h 5mph /  8km/h 91% 0in /  0.0mm 0 W/m2
04:19 43 °F /  6.1 °C 40.5 °F /  4.7 °C 30in /  1016.3hPa West 2mph /  3.2km/h 3mph /  4.8km/h 91% 0in /  0.0mm 0 W/m2
04:24 42.8 °F /  6 °C 40.3 °F /  4.6 °C 30in /  1016.3hPa Calm   3mph /  4.8km/h 91% 0in /  0.0mm 0 W/m2
04:29 42.8 °F /  6 °C 40.3 °F /  4.6 °C 30in /  1016.3hPa NW 2mph /  3.2km/h 5mph /  8km/h 91% 0in /  0.0mm 0 W/m2
04:34 42.6 °F /  5.9 °C 40.1 °F /  4.5 °C 30in /  1016.6hPa North 0.9mph /  1.4km/h 7mph /  11.3km/h 91% 0in /  0.0mm 0 W/m2
04:39 42.6 °F /  5.9 °C 40.1 °F /  4.5 °C 30in /  1016.6hPa NNW 0.9mph /  1.4km/h 2mph /  3.2km/h 91% 0in /  0.0mm 0 W/m2
04:44 42.6 °F /  5.9 °C 40.1 °F /  4.5 °C 30in /  1016.6hPa NW 2mph /  3.2km/h 4mph /  6.4km/h 91% 0in /  0.0mm 0 W/m2
04:49 42.6 °F /  5.9 °C 40.1 °F /  4.5 °C 30in /  1016.6hPa WNW 4mph /  6.4km/h 8mph /  12.9km/h 91% 0in /  0.0mm 0 W/m2
04:54 42.6 °F /  5.9 °C 40.1 °F /  4.5 °C 30in /  1016.6hPa West 2mph /  3.2km/h 3mph /  4.8km/h 91% 0in /  0.0mm 0 W/m2
04:59 42.6 °F /  5.9 °C 40.1 °F /  4.5 °C 30in /  1016.6hPa NW 0.9mph /  1.4km/h 8mph /  12.9km/h 91% 0in /  0.0mm 0 W/m2
05:04 42.6 °F /  5.9 °C 40.1 °F /  4.5 °C 30in /  1016.9hPa West 2mph /  3.2km/h 3mph /  4.8km/h 91% 0in /  0.0mm 0 W/m2
05:09 42.6 °F /  5.9 °C 40.1 °F /  4.5 °C 30in /  1016.9hPa West 0.9mph /  1.4km/h 4mph /  6.4km/h 91% 0in /  0.0mm 0 W/m2
05:14 42.4 °F /  5.8 °C 39.9 °F /  4.4 °C 30in /  1016.9hPa NW 2mph /  3.2km/h 7mph /  11.3km/h 91% 0in /  0.0mm 0 W/m2
05:19 42.4 °F /  5.8 °C 39.7 °F /  4.3 °C 30in /  1016.9hPa NW 0.9mph /  1.4km/h 3mph /  4.8km/h 90% 0in /  0.0mm 0 W/m2
05:24 42.4 °F /  5.8 °C 39.7 °F /  4.3 °C 30in /  1016.9hPa WNW 2.9mph /  4.7km/h 6mph /  9.7km/h 90% 0in /  0.0mm 0 W/m2
05:29 42.4 °F /  5.8 °C 39.7 °F /  4.3 °C 30in /  1017.3hPa WNW 2.9mph /  4.7km/h 5mph /  8km/h 90% 0in /  0.0mm 0 W/m2
05:34 42.4 °F /  5.8 °C 39.7 °F /  4.3 °C 30in /  1017.3hPa North 0.9mph /  1.4km/h 4mph /  6.4km/h 90% 0in /  0.0mm 0 W/m2
05:39 42.4 °F /  5.8 °C 39.7 °F /  4.3 °C 30in /  1017.3hPa NNE 0.9mph /  1.4km/h 4mph /  6.4km/h 90% 0in /  0.0mm 0 W/m2
05:44 42.4 °F /  5.8 °C 39.7 °F /  4.3 °C 30in /  1017.3hPa South 2mph /  3.2km/h 2mph /  3.2km/h 90% 0in /  0.0mm 0 W/m2
05:49 42.4 °F /  5.8 °C 39.7 °F /  4.3 °C 30in /  1017.3hPa Calm   5mph /  8km/h 90% 0in /  0.0mm 0 W/m2
05:54 42.4 °F /  5.8 °C 39.7 °F /  4.3 °C 30in /  1017.3hPa SSE 4mph /  6.4km/h 6mph /  9.7km/h 90% 0in /  0.0mm 0 W/m2
05:59 42.4 °F /  5.8 °C 39.7 °F /  4.3 °C 30.1in /  1017.6hPa West 4mph /  6.4km/h 4mph /  6.4km/h 90% 0in /  0.0mm 0 W/m2
06:04 42.3 °F /  5.7 °C 39.6 °F /  4.2 °C 30.1in /  1017.6hPa North 4mph /  6.4km/h 6mph /  9.7km/h 90% 0in /  0.0mm 0 W/m2
06:09 42.3 °F /  5.7 °C 39.2 °F /  4 °C 30.1in /  1017.6hPa WSW 0.9mph /  1.4km/h 5mph /  8km/h 89% 0in /  0.0mm 0 W/m2
06:14 42.3 °F /  5.7 °C 39.2 °F /  4 °C 30.1in /  1017.6hPa NNW 0.9mph /  1.4km/h 7mph /  11.3km/h 89% 0in /  0.0mm 0 W/m2
06:19 42.3 °F /  5.7 °C 39.2 °F /  4 °C 30.1in /  1017.6hPa East 0.9mph /  1.4km/h 3mph /  4.8km/h 89% 0in /  0.0mm 0 W/m2
06:24 42.3 °F /  5.7 °C 39.2 °F /  4 °C 30.1in /  1017.6hPa North 0.9mph /  1.4km/h 3mph /  4.8km/h 89% 0in /  0.0mm 0 W/m2
06:29 42.3 °F /  5.7 °C 39.2 °F /  4 °C 30.1in /  1018.0hPa ENE 6.9mph /  11.1km/h 10mph /  16.1km/h 89% 0in /  0.0mm 0 W/m2
06:34 42.1 °F /  5.6 °C 39 °F /  3.9 °C 30.1in /  1018.0hPa East 2.9mph /  4.7km/h 3mph /  4.8km/h 89% 0in /  0.0mm 0 W/m2
06:39 42.1 °F /  5.6 °C 39 °F /  3.9 °C 30.1in /  1018.0hPa NE 2mph /  3.2km/h 10mph /  16.1km/h 89% 0in /  0.0mm 0 W/m2
06:44 42.1 °F /  5.6 °C 39 °F /  3.9 °C 30.1in /  1018.0hPa East 2.9mph /  4.7km/h 5mph /  8km/h 89% 0in /  0.0mm 0 W/m2
06:49 42.1 °F /  5.6 °C 39 °F /  3.9 °C 30.1in /  1018.0hPa East 0.9mph /  1.4km/h 3mph /  4.8km/h 89% 0in /  0.0mm 0 W/m2
06:54 41.9 °F /  5.5 °C 38.8 °F /  3.8 °C 30.1in /  1018.0hPa North 2.9mph /  4.7km/h 3mph /  4.8km/h 89% 0in /  0.0mm 0 W/m2
06:59 41.7 °F /  5.4 °C 38.7 °F /  3.7 °C 30.1in /  1018.3hPa NW 2mph /  3.2km/h 6mph /  9.7km/h 89% 0in /  0.0mm 0 W/m2
07:04 41.7 °F /  5.4 °C 38.7 °F /  3.7 °C 30.1in /  1018.3hPa North 2mph /  3.2km/h 6mph /  9.7km/h 89% 0in /  0.0mm 0 W/m2
07:09 41.7 °F /  5.4 °C 38.7 °F /  3.7 °C 30.1in /  1018.3hPa Calm   3mph /  4.8km/h 89% 0in /  0.0mm 0 W/m2
07:14 41.7 °F /  5.4 °C 38.7 °F /  3.7 °C 30.1in /  1018.3hPa WNW 2mph /  3.2km/h 2mph /  3.2km/h 89% 0in /  0.0mm 0 W/m2
07:19 41.5 °F /  5.3 °C 38.5 °F /  3.6 °C 30.1in /  1018.6hPa WNW 4mph /  6.4km/h 6mph /  9.7km/h 89% 0in /  0.0mm 0 W/m2
07:24 41.5 °F /  5.3 °C 38.5 °F /  3.6 °C 30.1in /  1018.6hPa North 2.9mph /  4.7km/h 4mph /  6.4km/h 89% 0in /  0.0mm 0 W/m2
07:29 41.5 °F /  5.3 °C 38.5 °F /  3.6 °C 30.1in /  1018.6hPa WSW 2.9mph /  4.7km/h 6mph /  9.7km/h 89% 0in /  0.0mm 0 W/m2
07:34 41.5 °F /  5.3 °C 38.5 °F /  3.6 °C 30.1in /  1019.0hPa WNW 0.9mph /  1.4km/h 5mph /  8km/h 89% 0in /  0.0mm 0 W/m2
07:40 41.5 °F /  5.3 °C 38.5 °F /  3.6 °C 30.1in /  1019.0hPa NW 0.9mph /  1.4km/h 4mph /  6.4km/h 89% 0in /  0.0mm 0 W/m2
07:45 41.5 °F /  5.3 °C 38.5 °F /  3.6 °C 30.1in /  1019.0hPa ENE 0.9mph /  1.4km/h 4mph /  6.4km/h 89% 0in /  0.0mm 0 W/m2
07:50 41.5 °F /  5.3 °C 38.5 °F /  3.6 °C 30.1in /  1019.0hPa NNW 2mph /  3.2km/h 4mph /  6.4km/h 89% 0in /  0.0mm 0 W/m2
07:55 41.5 °F /  5.3 °C 38.5 °F /  3.6 °C 30.1in /  1019.0hPa SSW 0.9mph /  1.4km/h 3mph /  4.8km/h 89% 0in /  0.0mm 0 W/m2
08:00 41.5 °F /  5.3 °C 38.5 °F /  3.6 °C 30.1in /  1019.3hPa NNE 2mph /  3.2km/h 8mph /  12.9km/h 89% 0in /  0.0mm 0 W/m2
08:05 41.5 °F /  5.3 °C 38.5 °F /  3.6 °C 30.1in /  1019.3hPa WNW 2mph /  3.2km/h 8mph /  12.9km/h 89% 0in /  0.0mm 0 W/m2
08:10 41.5 °F /  5.3 °C 38.5 °F /  3.6 °C 30.1in /  1019.3hPa NNW 2.9mph /  4.7km/h 4mph /  6.4km/h 89% 0in /  0.0mm 0 W/m2
08:15 41.5 °F /  5.3 °C 38.5 °F /  3.6 °C 30.1in /  1019.6hPa Calm   5mph /  8km/h 89% 0in /  0.0mm 5 W/m2
08:20 41.5 °F /  5.3 °C 38.5 °F /  3.6 °C 30.1in /  1019.6hPa NW 4mph /  6.4km/h 9mph /  14.5km/h 89% 0in /  0.0mm 7 W/m2
08:25 41.5 °F /  5.3 °C 38.5 °F /  3.6 °C 30.1in /  1019.6hPa NW 4mph /  6.4km/h 5mph /  8km/h 89% 0in /  0.0mm 7 W/m2
08:30 41.7 °F /  5.4 °C 38.7 °F /  3.7 °C 30.1in /  1019.6hPa WNW 2.9mph /  4.7km/h 5mph /  8km/h 89% 0in /  0.0mm 9 W/m2
08:35 41.7 °F /  5.4 °C 38.7 °F /  3.7 °C 30.1in /  1019.6hPa NW 2mph /  3.2km/h 8mph /  12.9km/h 89% 0in /  0.0mm 7 W/m2
08:40 41.5 °F /  5.3 °C 38.5 °F /  3.6 °C 30.1in /  1020.0hPa NNE 2mph /  3.2km/h 8mph /  12.9km/h 89% 0in /  0.0mm 9 W/m2
08:45 41.7 °F /  5.4 °C 38.7 °F /  3.7 °C 30.1in /  1020.0hPa ESE 2.9mph /  4.7km/h 5mph /  8km/h 89% 0in /  0.0mm 11 W/m2
08:50 41.5 °F /  5.3 °C 38.5 °F /  3.6 °C 30.1in /  1020.0hPa NNE 4.9mph /  7.9km/h 8mph /  12.9km/h 89% 0in /  0.0mm 12 W/m2
08:55 41.7 °F /  5.4 °C 38.7 °F /  3.7 °C 30.1in /  1020.0hPa Calm   4mph /  6.4km/h 89% 0in /  0.0mm 18 W/m2
09:00 41.7 °F /  5.4 °C 38.7 °F /  3.7 °C 30.1in /  1020.3hPa Calm   3mph /  4.8km/h 89% 0in /  0.0mm 39 W/m2
09:05 41.7 °F /  5.4 °C 38.7 °F /  3.7 °C 30.1in /  1020.3hPa North 4mph /  6.4km/h 7mph /  11.3km/h 89% 0in /  0.0mm 47 W/m2
09:10 41.7 °F /  5.4 °C 38.7 °F /  3.7 °C 30.1in /  1020.3hPa NNW 0.9mph /  1.4km/h 7mph /  11.3km/h 89% 0in /  0.0mm 58 W/m2
09:15 41.9 °F /  5.5 °C 38.7 °F /  3.7 °C 30.1in /  1020.7hPa NE 2.9mph /  4.7km/h 7mph /  11.3km/h 88% 0in /  0.0mm 67 W/m2
09:20 42.1 °F /  5.6 °C 38.8 °F /  3.8 °C 30.1in /  1020.7hPa West 2mph /  3.2km/h 3mph /  4.8km/h 88% 0in /  0.0mm 67 W/m2
09:25 42.1 °F /  5.6 °C 38.8 °F /  3.8 °C 30.1in /  1020.7hPa NW 2.9mph /  4.7km/h 8mph /  12.9km/h 88% 0in /  0.0mm 62 W/m2
09:30 42.1 °F /  5.6 °C 38.8 °F /  3.8 °C 30.1in /  1020.7hPa NNW 2mph /  3.2km/h 3mph /  4.8km/h 88% 0in /  0.0mm 67 W/m2
09:35 42.3 °F /  5.7 °C 39 °F /  3.9 °C 30.2in /  1021.0hPa NNW 2mph /  3.2km/h 4mph /  6.4km/h 88% 0in /  0.0mm 58 W/m2
09:40 42.3 °F /  5.7 °C 39 °F /  3.9 °C 30.2in /  1021.0hPa North 2mph /  3.2km/h 4mph /  6.4km/h 88% 0in /  0.0mm 97 W/m2
09:45 42.3 °F /  5.7 °C 39 °F /  3.9 °C 30.2in /  1021.0hPa Calm   1mph /  1.6km/h 88% 0in /  0.0mm 114 W/m2
09:50 42.4 °F /  5.8 °C 39.2 °F /  4 °C 30.2in /  1021.0hPa WNW 2.9mph /  4.7km/h 7mph /  11.3km/h 88% 0in /  0.0mm 67 W/m2
09:55 42.6 °F /  5.9 °C 39 °F /  3.9 °C 30.2in /  1021.0hPa NE 4mph /  6.4km/h 7mph /  11.3km/h 87% 0in /  0.0mm 49 W/m2
10:00 42.8 °F /  6 °C 39.2 °F /  4 °C 30.2in /  1021.0hPa WSW 0.9mph /  1.4km/h 4mph /  6.4km/h 87% 0in /  0.0mm 62 W/m2
10:05 43 °F /  6.1 °C 39 °F /  3.9 °C 30.2in /  1021.0hPa WSW 4mph /  6.4km/h 7mph /  11.3km/h 86% 0in /  0.0mm 69 W/m2
10:10 43.2 °F /  6.2 °C 39.2 °F /  4 °C 30.2in /  1021.3hPa ENE 4mph /  6.4km/h 5mph /  8km/h 86% 0in /  0.0mm 53 W/m2
10:15 43.3 °F /  6.3 °C 39.4 °F /  4.1 °C 30.2in /  1021.3hPa SSE 0.9mph /  1.4km/h 6mph /  9.7km/h 86% 0in /  0.0mm 86 W/m2
10:20 43.5 °F /  6.4 °C 39.4 °F /  4.1 °C 30.2in /  1021.3hPa NNE 2mph /  3.2km/h 10mph /  16.1km/h 85% 0in /  0.0mm 35 W/m2
10:25 43.5 °F /  6.4 °C 39.4 °F /  4.1 °C 30.2in /  1021.3hPa East 2mph /  3.2km/h 4mph /  6.4km/h 85% 0in /  0.0mm 49 W/m2
10:30 43.7 °F /  6.5 °C 39.2 °F /  4 °C 30.2in /  1021.3hPa ESE 2mph /  3.2km/h 10mph /  16.1km/h 84% 0in /  0.0mm 35 W/m2
Juneau County Weather
Compliments of Weather Underground - 2 mb